createdAt,value
2019-03-30T00:06:23.717Z,7.90
2019-03-30T00:16:29.763Z,7.70
2019-03-30T00:26:35.893Z,7.70
2019-03-30T00:36:41.728Z,7.60
2019-03-30T00:46:47.771Z,7.40
2019-03-30T00:56:53.822Z,7.30
2019-03-30T01:06:59.703Z,7.20
2019-03-30T01:17:06.099Z,7.10
2019-03-30T01:27:12.143Z,7.20
2019-03-30T01:37:17.979Z,7.20
2019-03-30T01:47:23.776Z,7.10
2019-03-30T01:57:29.674Z,7.00
2019-03-30T02:07:35.470Z,6.90
2019-03-30T02:17:41.749Z,6.90
2019-03-30T02:27:47.650Z,6.80
2019-03-30T02:37:53.527Z,6.70
2019-03-30T02:47:59.558Z,6.70
2019-03-30T02:58:05.674Z,6.80
2019-03-30T03:08:11.724Z,6.70
2019-03-30T03:18:17.574Z,6.80
2019-03-30T03:28:23.624Z,6.80
2019-03-30T03:38:29.434Z,6.80
2019-03-30T03:48:35.801Z,6.70
2019-03-30T03:58:43.375Z,6.70
2019-03-30T04:08:51.132Z,6.60
2019-03-30T04:18:57.550Z,6.60
2019-03-30T04:29:03.355Z,6.50
2019-03-30T04:39:09.145Z,6.50
2019-03-30T04:49:15.167Z,6.30
2019-03-30T04:59:20.947Z,6.30
2019-03-30T05:09:26.718Z,6.30
2019-03-30T05:19:32.535Z,6.30
2019-03-30T05:29:38.923Z,6.30
2019-03-30T05:39:44.719Z,6.40
2019-03-30T05:49:50.568Z,6.50
2019-03-30T05:59:56.455Z,6.50
2019-03-30T06:10:02.797Z,6.60
2019-03-30T06:20:08.757Z,6.80
2019-03-30T06:30:16.883Z,6.90
2019-03-30T06:40:22.680Z,7.10
2019-03-30T06:50:28.708Z,7.30
2019-03-30T07:00:35.554Z,7.60
2019-03-30T07:10:43.962Z,7.90
2019-03-30T07:20:49.761Z,8.40
2019-03-30T07:30:55.622Z,8.60
2019-03-30T07:41:01.419Z,8.90
2019-03-30T07:51:07.823Z,9.50
2019-03-30T08:01:13.643Z,10.20
2019-03-30T08:11:19.615Z,10.60
2019-03-30T08:21:25.502Z,11.20
2019-03-30T08:31:31.343Z,11.70
2019-03-30T08:41:37.142Z,12.00
2019-03-30T08:51:42.983Z,12.40
2019-03-30T09:01:49.048Z,12.90
2019-03-30T09:11:55.139Z,13.40
2019-03-30T09:22:00.987Z,13.80
2019-03-30T09:32:14.379Z,14.00
2019-03-30T09:42:14.707Z,14.50
2019-03-30T09:52:20.852Z,14.90
2019-03-30T10:02:26.654Z,15.50
2019-03-30T10:12:33.492Z,15.90
2019-03-30T10:22:42.164Z,16.30
2019-03-30T10:32:47.576Z,16.90
2019-03-30T10:42:53.671Z,17.10
2019-03-30T10:52:59.479Z,17.70
2019-03-30T11:03:05.582Z,19.60
2019-03-30T11:13:11.394Z,21.70
2019-03-30T11:23:17.190Z,23.10
2019-03-30T11:33:22.975Z,23.90
2019-03-30T11:43:29.254Z,25.30
2019-03-30T11:53:35.072Z,25.70
2019-03-30T12:03:40.858Z,26.60
2019-03-30T12:13:46.960Z,27.90
2019-03-30T12:23:52.774Z,28.40
2019-03-30T12:33:58.792Z,29.50
2019-03-30T12:44:04.756Z,30.30
2019-03-30T12:54:10.899Z,31.40
2019-03-30T13:04:16.780Z,32.10
2019-03-30T13:14:22.563Z,32.50
2019-03-30T13:24:28.438Z,32.80
2019-03-30T13:34:34.235Z,32.70
2019-03-30T13:44:40.506Z,33.70
2019-03-30T13:54:46.551Z,33.70
2019-03-30T14:04:52.722Z,34.00
2019-03-30T14:14:58.855Z,33.50
2019-03-30T14:25:05.746Z,33.80
2019-03-30T14:35:11.898Z,34.10
2019-03-30T14:45:18.192Z,35.10
2019-03-30T14:55:24.100Z,36.90
2019-03-30T15:05:29.942Z,37.80
2019-03-30T15:15:35.724Z,38.10
2019-03-30T15:25:41.734Z,39.60
2019-03-30T15:35:46.422Z,38.70
2019-03-30T15:45:52.627Z,37.10
2019-03-30T15:55:58.424Z,35.20
2019-03-30T16:06:04.202Z,31.30
2019-03-30T16:16:09.981Z,28.50
2019-03-30T16:26:13.443Z,27.30
2019-03-30T16:36:19.215Z,26.30
2019-03-30T16:46:25.328Z,25.20
2019-03-30T16:56:31.183Z,24.40
2019-03-30T17:06:37.046Z,23.60
2019-03-30T17:16:43.319Z,22.50
2019-03-30T17:27:08.145Z,21.40
2019-03-30T17:37:14.610Z,20.60
2019-03-30T17:47:20.873Z,19.90
2019-03-30T17:57:26.678Z,19.20
2019-03-30T18:07:32.534Z,18.70
2019-03-30T18:17:38.815Z,18.30
2019-03-30T18:27:44.933Z,17.90
2019-03-30T18:37:52.282Z,17.60
2019-03-30T18:48:10.608Z,17.20
2019-03-30T18:58:16.567Z,16.70
2019-03-30T19:08:22.371Z,16.40
2019-03-30T19:18:28.463Z,15.90
2019-03-30T19:28:34.489Z,15.70
2019-03-30T19:38:40.287Z,15.30
2019-03-30T19:48:46.108Z,15.10
2019-03-30T19:58:52.270Z,14.90
2019-03-30T20:08:58.189Z,14.50
2019-03-30T20:19:12.181Z,14.10
2019-03-30T20:29:24.811Z,13.80
2019-03-30T20:39:19.739Z,13.50
2019-03-30T20:49:25.563Z,13.10
2019-03-30T20:59:39.942Z,12.80
2019-03-30T21:09:39.434Z,12.70
2019-03-30T21:19:45.467Z,12.50
2019-03-30T21:29:54.965Z,12.50
2019-03-30T21:39:59.558Z,12.50
2019-03-30T21:50:06.094Z,12.40
2019-03-30T22:00:12.743Z,12.30
2019-03-30T22:10:27.159Z,12.20
2019-03-30T22:20:33.305Z,12.30
2019-03-30T22:30:39.555Z,12.30
2019-03-30T22:40:45.362Z,12.20
2019-03-30T22:50:51.768Z,12.20
2019-03-30T23:01:02.691Z,12.10
2019-03-30T23:11:08.565Z,12.10
2019-03-30T23:21:14.376Z,12.10
2019-03-30T23:31:20.519Z,12.30
2019-03-30T23:41:26.345Z,12.10
2019-03-30T23:51:32.180Z,12.10
